sensor_id;sensor_type;location;lat;lon;timestamp;temperature;humidity
10384;DHT22;5238;43.508;4.980;2023-06-22T00:01:50;26.30;91.30
10384;DHT22;5238;43.508;4.980;2023-06-22T00:04:17;26.30;91.30
10384;DHT22;5238;43.508;4.980;2023-06-22T00:06:44;26.20;91.30
10384;DHT22;5238;43.508;4.980;2023-06-22T00:09:12;26.20;91.30
10384;DHT22;5238;43.508;4.980;2023-06-22T00:11:43;26.20;91.30
10384;DHT22;5238;43.508;4.980;2023-06-22T00:14:10;26.20;91.30
10384;DHT22;5238;43.508;4.980;2023-06-22T00:16:41;26.20;91.30
10384;DHT22;5238;43.508;4.980;2023-06-22T00:19:10;26.20;91.30
10384;DHT22;5238;43.508;4.980;2023-06-22T00:21:39;26.20;91.30
10384;DHT22;5238;43.508;4.980;2023-06-22T00:24:12;26.10;91.30
10384;DHT22;5238;43.508;4.980;2023-06-22T00:26:43;26.20;91.30
10384;DHT22;5238;43.508;4.980;2023-06-22T00:29:13;26.10;91.30
10384;DHT22;5238;43.508;4.980;2023-06-22T00:31:43;26.10;91.30
10384;DHT22;5238;43.508;4.980;2023-06-22T00:34:17;26.20;91.30
10384;DHT22;5238;43.508;4.980;2023-06-22T00:36:44;26.20;91.30
10384;DHT22;5238;43.508;4.980;2023-06-22T00:39:18;26.20;91.30
10384;DHT22;5238;43.508;4.980;2023-06-22T00:41:52;26.30;91.30
10384;DHT22;5238;43.508;4.980;2023-06-22T00:44:27;26.30;91.30
10384;DHT22;5238;43.508;4.980;2023-06-22T00:46:57;26.30;91.30
10384;DHT22;5238;43.508;4.980;2023-06-22T00:49:26;26.30;91.30
10384;DHT22;5238;43.508;4.980;2023-06-22T00:52:00;26.30;91.30
10384;DHT22;5238;43.508;4.980;2023-06-22T00:54:31;26.30;91.30
10384;DHT22;5238;43.508;4.980;2023-06-22T00:57:02;26.30;91.30
10384;DHT22;5238;43.508;4.980;2023-06-22T00:59:31;26.30;91.30
10384;DHT22;5238;43.508;4.980;2023-06-22T01:02:06;26.20;91.30
10384;DHT22;5238;43.508;4.980;2023-06-22T01:04:38;26.20;91.30
10384;DHT22;5238;43.508;4.980;2023-06-22T01:07:15;26.20;91.30
10384;DHT22;5238;43.508;4.980;2023-06-22T01:09:54;26.20;91.30
10384;DHT22;5238;43.508;4.980;2023-06-22T01:12:32;26.20;91.30
10384;DHT22;5238;43.508;4.980;2023-06-22T01:15:10;26.20;91.30
10384;DHT22;5238;43.508;4.980;2023-06-22T01:17:48;26.20;91.30
10384;DHT22;5238;43.508;4.980;2023-06-22T01:20:18;26.10;91.30
10384;DHT22;5238;43.508;4.980;2023-06-22T01:22:58;26.10;91.30
10384;DHT22;5238;43.508;4.980;2023-06-22T01:25:46;26.10;91.30
10384;DHT22;5238;43.508;4.980;2023-06-22T01:31:11;26.00;91.30
10384;DHT22;5238;43.508;4.980;2023-06-22T01:33:42;26.00;91.30
10384;DHT22;5238;43.508;4.980;2023-06-22T01:36:11;25.90;91.30
10384;DHT22;5238;43.508;4.980;2023-06-22T01:38:43;25.90;91.30
10384;DHT22;5238;43.508;4.980;2023-06-22T01:41:12;25.80;91.30
10384;DHT22;5238;43.508;4.980;2023-06-22T01:43:48;25.80;91.30
10384;DHT22;5238;43.508;4.980;2023-06-22T01:46:33;25.80;91.30
10384;DHT22;5238;43.508;4.980;2023-06-22T01:49:09;25.70;91.30
10384;DHT22;5238;43.508;4.980;2023-06-22T01:51:38;25.70;91.30
10384;DHT22;5238;43.508;4.980;2023-06-22T01:54:19;25.70;91.30
10384;DHT22;5238;43.508;4.980;2023-06-22T01:56:50;25.70;91.30
10384;DHT22;5238;43.508;4.980;2023-06-22T01:59:28;25.70;91.30
10384;DHT22;5238;43.508;4.980;2023-06-22T02:02:04;25.70;91.30
10384;DHT22;5238;43.508;4.980;2023-06-22T02:04:41;25.70;91.30
10384;DHT22;5238;43.508;4.980;2023-06-22T02:07:13;25.60;91.30
10384;DHT22;5238;43.508;4.980;2023-06-22T02:09:51;25.60;91.30
10384;DHT22;5238;43.508;4.980;2023-06-22T02:12:26;25.60;91.30
10384;DHT22;5238;43.508;4.980;2023-06-22T02:15:09;25.60;91.30
10384;DHT22;5238;43.508;4.980;2023-06-22T02:17:40;25.60;91.30
10384;DHT22;5238;43.508;4.980;2023-06-22T02:20:14;25.60;91.30
10384;DHT22;5238;43.508;4.980;2023-06-22T02:22:51;25.60;91.30
10384;DHT22;5238;43.508;4.980;2023-06-22T02:25:19;25.60;91.30
10384;DHT22;5238;43.508;4.980;2023-06-22T02:27:54;25.60;91.30
10384;DHT22;5238;43.508;4.980;2023-06-22T02:30:26;25.60;91.30
10384;DHT22;5238;43.508;4.980;2023-06-22T02:33:03;25.60;91.30
10384;DHT22;5238;43.508;4.980;2023-06-22T02:35:43;25.60;91.30
10384;DHT22;5238;43.508;4.980;2023-06-22T02:38:13;25.60;91.30
10384;DHT22;5238;43.508;4.980;2023-06-22T02:40:54;25.60;91.30
10384;DHT22;5238;43.508;4.980;2023-06-22T02:43:24;25.60;91.30
10384;DHT22;5238;43.508;4.980;2023-06-22T02:45:53;25.60;91.30
10384;DHT22;5238;43.508;4.980;2023-06-22T02:48:22;25.50;91.30
10384;DHT22;5238;43.508;4.980;2023-06-22T02:50:50;25.50;91.30
10384;DHT22;5238;43.508;4.980;2023-06-22T02:53:20;25.50;91.30
10384;DHT22;5238;43.508;4.980;2023-06-22T02:55:53;25.50;91.30
10384;DHT22;5238;43.508;4.980;2023-06-22T02:58:31;25.40;91.30
10384;DHT22;5238;43.508;4.980;2023-06-22T03:01:07;25.40;91.30
10384;DHT22;5238;43.508;4.980;2023-06-22T03:03:43;25.30;91.30
10384;DHT22;5238;43.508;4.980;2023-06-22T03:06:12;25.20;91.30
10384;DHT22;5238;43.508;4.980;2023-06-22T03:08:48;25.10;91.30
10384;DHT22;5238;43.508;4.980;2023-06-22T03:11:22;25.00;91.30
10384;DHT22;5238;43.508;4.980;2023-06-22T03:13:50;24.90;91.30
10384;DHT22;5238;43.508;4.980;2023-06-22T03:16:23;24.80;91.30
10384;DHT22;5238;43.508;4.980;2023-06-22T03:18:57;24.80;91.30
10384;DHT22;5238;43.508;4.980;2023-06-22T03:21:29;24.80;91.30
10384;DHT22;5238;43.508;4.980;2023-06-22T03:23:57;24.80;91.30
10384;DHT22;5238;43.508;4.980;2023-06-22T03:26:24;24.80;91.30
10384;DHT22;5238;43.508;4.980;2023-06-22T03:28:58;24.90;91.30
10384;DHT22;5238;43.508;4.980;2023-06-22T03:31:27;24.90;91.30
10384;DHT22;5238;43.508;4.980;2023-06-22T03:34:03;24.90;91.30
10384;DHT22;5238;43.508;4.980;2023-06-22T03:36:31;25.00;91.30
10384;DHT22;5238;43.508;4.980;2023-06-22T03:39:00;25.10;91.30
10384;DHT22;5238;43.508;4.980;2023-06-22T03:41:34;25.10;91.30
10384;DHT22;5238;43.508;4.980;2023-06-22T03:44:02;25.20;91.30
10384;DHT22;5238;43.508;4.980;2023-06-22T03:46:29;25.30;91.30
10384;DHT22;5238;43.508;4.980;2023-06-22T03:48:57;25.30;91.30
10384;DHT22;5238;43.508;4.980;2023-06-22T03:51:34;25.30;91.30
10384;DHT22;5238;43.508;4.980;2023-06-22T03:54:10;25.40;91.30
10384;DHT22;5238;43.508;4.980;2023-06-22T03:56:51;25.50;91.30
10384;DHT22;5238;43.508;4.980;2023-06-22T03:59:32;25.50;91.30
10384;DHT22;5238;43.508;4.980;2023-06-22T04:02:02;25.50;91.30
10384;DHT22;5238;43.508;4.980;2023-06-22T04:04:33;25.50;91.30
10384;DHT22;5238;43.508;4.980;2023-06-22T04:07:05;25.60;91.30
10384;DHT22;5238;43.508;4.980;2023-06-22T04:09:34;25.60;91.30
10384;DHT22;5238;43.508;4.980;2023-06-22T04:12:05;25.60;91.30
10384;DHT22;5238;43.508;4.980;2023-06-22T04:14:34;25.50;91.30
10384;DHT22;5238;43.508;4.980;2023-06-22T04:17:05;25.60;91.30
10384;DHT22;5238;43.508;4.980;2023-06-22T04:19:32;25.60;91.30
10384;DHT22;5238;43.508;4.980;2023-06-22T04:22:14;25.60;91.30
10384;DHT22;5238;43.508;4.980;2023-06-22T04:24:47;25.70;91.30
10384;DHT22;5238;43.508;4.980;2023-06-22T04:27:19;25.80;91.30
10384;DHT22;5238;43.508;4.980;2023-06-22T04:29:53;25.80;91.30
10384;DHT22;5238;43.508;4.980;2023-06-22T04:32:21;25.80;91.30
10384;DHT22;5238;43.508;4.980;2023-06-22T04:34:48;25.70;91.30
10384;DHT22;5238;43.508;4.980;2023-06-22T04:37:16;25.70;91.30
10384;DHT22;5238;43.508;4.980;2023-06-22T04:39:45;25.60;91.30
10384;DHT22;5238;43.508;4.980;2023-06-22T04:42:14;25.60;91.30
10384;DHT22;5238;43.508;4.980;2023-06-22T04:44:41;25.60;91.30
10384;DHT22;5238;43.508;4.980;2023-06-22T04:47:09;25.60;91.30
10384;DHT22;5238;43.508;4.980;2023-06-22T04:49:37;25.60;91.30
10384;DHT22;5238;43.508;4.980;2023-06-22T04:52:09;25.50;91.30
10384;DHT22;5238;43.508;4.980;2023-06-22T04:54:39;25.40;91.30
10384;DHT22;5238;43.508;4.980;2023-06-22T04:57:16;25.40;91.30
10384;DHT22;5238;43.508;4.980;2023-06-22T04:59:45;25.40;91.30
10384;DHT22;5238;43.508;4.980;2023-06-22T05:02:12;25.40;91.30
10384;DHT22;5238;43.508;4.980;2023-06-22T05:04:45;25.30;91.30
10384;DHT22;5238;43.508;4.980;2023-06-22T05:07:17;25.20;91.30
10384;DHT22;5238;43.508;4.980;2023-06-22T05:09:46;25.10;91.30
10384;DHT22;5238;43.508;4.980;2023-06-22T05:12:16;25.10;91.30
10384;DHT22;5238;43.508;4.980;2023-06-22T05:14:46;24.90;91.30
10384;DHT22;5238;43.508;4.980;2023-06-22T05:17:14;24.90;91.30
10384;DHT22;5238;43.508;4.980;2023-06-22T05:19:44;24.80;91.30
10384;DHT22;5238;43.508;4.980;2023-06-22T05:22:18;24.80;91.30
10384;DHT22;5238;43.508;4.980;2023-06-22T05:24:54;24.80;91.30
10384;DHT22;5238;43.508;4.980;2023-06-22T05:27:22;24.80;91.30
10384;DHT22;5238;43.508;4.980;2023-06-22T05:30:07;24.80;91.30
10384;DHT22;5238;43.508;4.980;2023-06-22T05:32:48;24.80;91.30
10384;DHT22;5238;43.508;4.980;2023-06-22T05:35:29;24.70;91.30
10384;DHT22;5238;43.508;4.980;2023-06-22T05:38:01;24.60;91.30
10384;DHT22;5238;43.508;4.980;2023-06-22T05:40:44;24.50;91.30
10384;DHT22;5238;43.508;4.980;2023-06-22T05:43:15;24.50;91.30
10384;DHT22;5238;43.508;4.980;2023-06-22T05:45:42;24.50;91.30
10384;DHT22;5238;43.508;4.980;2023-06-22T05:48:27;24.40;91.30
10384;DHT22;5238;43.508;4.980;2023-06-22T05:51:09;24.40;91.30
10384;DHT22;5238;43.508;4.980;2023-06-22T05:53:49;24.40;91.30
10384;DHT22;5238;43.508;4.980;2023-06-22T05:56:33;24.30;91.30
10384;DHT22;5238;43.508;4.980;2023-06-22T05:59:20;24.20;91.30
10384;DHT22;5238;43.508;4.980;2023-06-22T06:01:47;24.20;91.30
10384;DHT22;5238;43.508;4.980;2023-06-22T06:04:31;24.20;91.30
10384;DHT22;5238;43.508;4.980;2023-06-22T06:06:58;24.20;91.30
10384;DHT22;5238;43.508;4.980;2023-06-22T06:09:26;24.20;91.30
10384;DHT22;5238;43.508;4.980;2023-06-22T06:11:55;24.20;91.30
10384;DHT22;5238;43.508;4.980;2023-06-22T06:14:23;24.20;91.30
10384;DHT22;5238;43.508;4.980;2023-06-22T06:17:04;24.10;91.30
10384;DHT22;5238;43.508;4.980;2023-06-22T06:19:48;24.10;91.30
10384;DHT22;5238;43.508;4.980;2023-06-22T06:22:17;24.10;91.30
10384;DHT22;5238;43.508;4.980;2023-06-22T06:24:59;24.10;91.30
10384;DHT22;5238;43.508;4.980;2023-06-22T06:27:55;24.10;91.30
10384;DHT22;5238;43.508;4.980;2023-06-22T06:30:23;24.20;91.30
10384;DHT22;5238;43.508;4.980;2023-06-22T06:32:55;24.30;91.30
10384;DHT22;5238;43.508;4.980;2023-06-22T06:35:25;24.30;91.30
10384;DHT22;5238;43.508;4.980;2023-06-22T06:38:11;24.50;91.30
10384;DHT22;5238;43.508;4.980;2023-06-22T06:40:52;24.70;91.30
10384;DHT22;5238;43.508;4.980;2023-06-22T06:43:34;24.90;91.30
10384;DHT22;5238;43.508;4.980;2023-06-22T06:46:18;25.10;91.30
10384;DHT22;5238;43.508;4.980;2023-06-22T06:48:49;25.20;91.30
10384;DHT22;5238;43.508;4.980;2023-06-22T06:51:20;25.40;91.30
10384;DHT22;5238;43.508;4.980;2023-06-22T06:53:47;25.50;91.30
10384;DHT22;5238;43.508;4.980;2023-06-22T06:56:31;25.60;91.30
10384;DHT22;5238;43.508;4.980;2023-06-22T06:59:17;25.70;91.30
10384;DHT22;5238;43.508;4.980;2023-06-22T07:01:58;25.70;91.30
10384;DHT22;5238;43.508;4.980;2023-06-22T07:04:39;25.70;91.30
10384;DHT22;5238;43.508;4.980;2023-06-22T07:07:28;25.80;91.30
10384;DHT22;5238;43.508;4.980;2023-06-22T07:09:56;25.90;91.30
10384;DHT22;5238;43.508;4.980;2023-06-22T07:12:37;25.80;91.30
10384;DHT22;5238;43.508;4.980;2023-06-22T07:15:21;25.90;91.30
10384;DHT22;5238;43.508;4.980;2023-06-22T07:17:49;25.90;91.30
10384;DHT22;5238;43.508;4.980;2023-06-22T07:20:30;25.90;91.30
10384;DHT22;5238;43.508;4.980;2023-06-22T07:23:11;25.90;91.30
10384;DHT22;5238;43.508;4.980;2023-06-22T07:25:53;25.90;91.30
10384;DHT22;5238;43.508;4.980;2023-06-22T07:28:44;25.90;91.30
10384;DHT22;5238;43.508;4.980;2023-06-22T07:31:44;25.90;91.30
10384;DHT22;5238;43.508;4.980;2023-06-22T07:34:25;25.90;91.30
10384;DHT22;5238;43.508;4.980;2023-06-22T07:36:56;25.90;91.30
10384;DHT22;5238;43.508;4.980;2023-06-22T07:39:31;25.80;91.30
10384;DHT22;5238;43.508;4.980;2023-06-22T07:41:58;25.80;91.30
10384;DHT22;5238;43.508;4.980;2023-06-22T07:44:24;25.70;91.30
10384;DHT22;5238;43.508;4.980;2023-06-22T07:46:53;25.60;91.30
10384;DHT22;5238;43.508;4.980;2023-06-22T07:49:20;25.60;91.30
10384;DHT22;5238;43.508;4.980;2023-06-22T07:51:47;25.60;91.30
10384;DHT22;5238;43.508;4.980;2023-06-22T07:54:14;25.50;91.30
10384;DHT22;5238;43.508;4.980;2023-06-22T07:56:43;25.40;91.30
10384;DHT22;5238;43.508;4.980;2023-06-22T07:59:10;25.30;91.30
10384;DHT22;5238;43.508;4.980;2023-06-22T08:01:43;25.30;91.30
10384;DHT22;5238;43.508;4.980;2023-06-22T08:04:30;25.20;91.30
10384;DHT22;5238;43.508;4.980;2023-06-22T08:07:06;25.10;91.30
10384;DHT22;5238;43.508;4.980;2023-06-22T08:09:46;25.00;91.30
10384;DHT22;5238;43.508;4.980;2023-06-22T08:12:19;25.10;91.30
10384;DHT22;5238;43.508;4.980;2023-06-22T08:14:47;25.10;91.30
10384;DHT22;5238;43.508;4.980;2023-06-22T08:17:14;25.00;91.30
10384;DHT22;5238;43.508;4.980;2023-06-22T08:19:43;25.00;91.30
10384;DHT22;5238;43.508;4.980;2023-06-22T08:22:10;25.00;91.30
10384;DHT22;5238;43.508;4.980;2023-06-22T08:24:37;25.00;91.30
10384;DHT22;5238;43.508;4.980;2023-06-22T08:27:07;25.00;91.30
10384;DHT22;5238;43.508;4.980;2023-06-22T08:29:38;25.00;91.30
10384;DHT22;5238;43.508;4.980;2023-06-22T08:32:17;25.00;91.30
10384;DHT22;5238;43.508;4.980;2023-06-22T08:35:03;25.00;91.30
10384;DHT22;5238;43.508;4.980;2023-06-22T08:37:31;25.00;91.30
10384;DHT22;5238;43.508;4.980;2023-06-22T08:40:04;25.00;91.30
10384;DHT22;5238;43.508;4.980;2023-06-22T08:42:33;24.90;91.30
10384;DHT22;5238;43.508;4.980;2023-06-22T08:45:00;25.00;91.30
10384;DHT22;5238;43.508;4.980;2023-06-22T08:47:28;25.00;91.30
10384;DHT22;5238;43.508;4.980;2023-06-22T08:49:56;25.00;91.30
10384;DHT22;5238;43.508;4.980;2023-06-22T08:52:41;24.90;91.30
10384;DHT22;5238;43.508;4.980;2023-06-22T08:55:11;24.90;91.30
10384;DHT22;5238;43.508;4.980;2023-06-22T08:58:00;24.80;91.30
10384;DHT22;5238;43.508;4.980;2023-06-22T09:00:32;24.70;91.30
10384;DHT22;5238;43.508;4.980;2023-06-22T09:03:14;24.70;91.30
10384;DHT22;5238;43.508;4.980;2023-06-22T09:05:42;24.70;91.30
10384;DHT22;5238;43.508;4.980;2023-06-22T09:08:13;24.80;91.30
10384;DHT22;5238;43.508;4.980;2023-06-22T09:10:54;24.90;91.30
10384;DHT22;5238;43.508;4.980;2023-06-22T09:13:30;24.90;91.30
10384;DHT22;5238;43.508;4.980;2023-06-22T09:16:07;25.00;91.30
10384;DHT22;5238;43.508;4.980;2023-06-22T09:18:49;25.40;91.30
10384;DHT22;5238;43.508;4.980;2023-06-22T09:21:26;25.90;91.30
10384;DHT22;5238;43.508;4.980;2023-06-22T09:24:00;26.30;91.30
10384;DHT22;5238;43.508;4.980;2023-06-22T09:26:48;26.60;91.30
10384;DHT22;5238;43.508;4.980;2023-06-22T09:29:23;26.80;91.30
10384;DHT22;5238;43.508;4.980;2023-06-22T09:31:52;27.10;91.30
10384;DHT22;5238;43.508;4.980;2023-06-22T09:34:21;27.50;91.30
10384;DHT22;5238;43.508;4.980;2023-06-22T09:36:57;27.90;91.30
10384;DHT22;5238;43.508;4.980;2023-06-22T09:39:41;28.20;91.30
10384;DHT22;5238;43.508;4.980;2023-06-22T09:42:11;28.40;91.30
10384;DHT22;5238;43.508;4.980;2023-06-22T09:44:52;28.60;91.30
10384;DHT22;5238;43.508;4.980;2023-06-22T09:47:27;28.90;91.30
10384;DHT22;5238;43.508;4.980;2023-06-22T09:49:55;29.00;91.30
10384;DHT22;5238;43.508;4.980;2023-06-22T09:52:25;29.20;91.30
10384;DHT22;5238;43.508;4.980;2023-06-22T09:54:53;29.60;91.30
10384;DHT22;5238;43.508;4.980;2023-06-22T09:57:20;30.00;91.30
10384;DHT22;5238;43.508;4.980;2023-06-22T09:59:47;30.50;91.30
10384;DHT22;5238;43.508;4.980;2023-06-22T10:02:14;30.70;91.30
10384;DHT22;5238;43.508;4.980;2023-06-22T10:04:41;31.10;91.30
10384;DHT22;5238;43.508;4.980;2023-06-22T10:07:08;31.50;91.30
10384;DHT22;5238;43.508;4.980;2023-06-22T10:09:35;31.90;91.30
10384;DHT22;5238;43.508;4.980;2023-06-22T10:12:04;32.30;91.30
10384;DHT22;5238;43.508;4.980;2023-06-22T10:14:35;32.60;91.30
10384;DHT22;5238;43.508;4.980;2023-06-22T10:17:02;33.00;91.30
10384;DHT22;5238;43.508;4.980;2023-06-22T10:19:32;33.30;91.30
10384;DHT22;5238;43.508;4.980;2023-06-22T10:22:13;33.70;91.30
10384;DHT22;5238;43.508;4.980;2023-06-22T10:24:54;34.00;91.30
10384;DHT22;5238;43.508;4.980;2023-06-22T10:27:37;34.30;91.30
10384;DHT22;5238;43.508;4.980;2023-06-22T10:30:07;34.70;91.30
10384;DHT22;5238;43.508;4.980;2023-06-22T10:32:53;35.10;91.30
10384;DHT22;5238;43.508;4.980;2023-06-22T10:35:23;35.60;91.30
10384;DHT22;5238;43.508;4.980;2023-06-22T10:37:52;35.90;91.30
10384;DHT22;5238;43.508;4.980;2023-06-22T10:40:33;36.30;91.30
10384;DHT22;5238;43.508;4.980;2023-06-22T10:43:06;36.60;91.30
10384;DHT22;5238;43.508;4.980;2023-06-22T10:45:40;36.90;91.30
10384;DHT22;5238;43.508;4.980;2023-06-22T10:48:08;37.20;91.30
10384;DHT22;5238;43.508;4.980;2023-06-22T10:50:35;37.50;91.30
10384;DHT22;5238;43.508;4.980;2023-06-22T10:53:09;37.80;91.30
10384;DHT22;5238;43.508;4.980;2023-06-22T10:55:38;38.00;91.30
10384;DHT22;5238;43.508;4.980;2023-06-22T10:58:11;38.30;91.30
10384;DHT22;5238;43.508;4.980;2023-06-22T11:00:39;38.60;91.30
10384;DHT22;5238;43.508;4.980;2023-06-22T11:03:19;38.80;91.30
10384;DHT22;5238;43.508;4.980;2023-06-22T11:05:55;39.00;91.30
10384;DHT22;5238;43.508;4.980;2023-06-22T11:08:27;39.20;91.30
10384;DHT22;5238;43.508;4.980;2023-06-22T11:10:57;39.40;91.30
10384;DHT22;5238;43.508;4.980;2023-06-22T11:13:39;39.40;91.30
10384;DHT22;5238;43.508;4.980;2023-06-22T11:16:08;39.40;91.30
10384;DHT22;5238;43.508;4.980;2023-06-22T11:18:35;39.50;91.30
10384;DHT22;5238;43.508;4.980;2023-06-22T11:21:07;39.50;91.30
10384;DHT22;5238;43.508;4.980;2023-06-22T11:23:35;39.60;91.30
10384;DHT22;5238;43.508;4.980;2023-06-22T11:26:08;39.70;91.30
10384;DHT22;5238;43.508;4.980;2023-06-22T11:28:38;39.70;91.30
10384;DHT22;5238;43.508;4.980;2023-06-22T11:31:09;39.80;91.30
10384;DHT22;5238;43.508;4.980;2023-06-22T11:33:37;39.70;91.30
10384;DHT22;5238;43.508;4.980;2023-06-22T11:36:14;39.60;91.30
10384;DHT22;5238;43.508;4.980;2023-06-22T11:38:47;39.30;91.30
10384;DHT22;5238;43.508;4.980;2023-06-22T11:41:15;39.10;91.30
10384;DHT22;5238;43.508;4.980;2023-06-22T11:43:50;38.90;91.30
10384;DHT22;5238;43.508;4.980;2023-06-22T11:46:22;38.70;91.30
10384;DHT22;5238;43.508;4.980;2023-06-22T11:48:50;38.60;91.30
10384;DHT22;5238;43.508;4.980;2023-06-22T11:51:17;38.50;91.30
10384;DHT22;5238;43.508;4.980;2023-06-22T11:53:52;38.40;91.30
10384;DHT22;5238;43.508;4.980;2023-06-22T11:56:21;38.20;91.30
10384;DHT22;5238;43.508;4.980;2023-06-22T11:58:51;38.10;91.30
10384;DHT22;5238;43.508;4.980;2023-06-22T12:01:25;38.00;91.30
10384;DHT22;5238;43.508;4.980;2023-06-22T12:03:53;37.90;91.30
10384;DHT22;5238;43.508;4.980;2023-06-22T12:06:21;37.80;91.30
10384;DHT22;5238;43.508;4.980;2023-06-22T12:08:52;37.70;91.30
10384;DHT22;5238;43.508;4.980;2023-06-22T12:11:21;37.60;91.30
10384;DHT22;5238;43.508;4.980;2023-06-22T12:13:54;37.60;91.30
10384;DHT22;5238;43.508;4.980;2023-06-22T12:16:21;37.50;91.30
10384;DHT22;5238;43.508;4.980;2023-06-22T12:18:51;37.40;91.30
10384;DHT22;5238;43.508;4.980;2023-06-22T12:21:24;37.10;91.30
10384;DHT22;5238;43.508;4.980;2023-06-22T12:23:53;36.80;91.30
10384;DHT22;5238;43.508;4.980;2023-06-22T12:26:21;36.60;91.30
10384;DHT22;5238;43.508;4.980;2023-06-22T12:28:48;36.30;91.30
10384;DHT22;5238;43.508;4.980;2023-06-22T12:31:30;36.00;91.30
10384;DHT22;5238;43.508;4.980;2023-06-22T12:33:59;35.70;91.30
10384;DHT22;5238;43.508;4.980;2023-06-22T12:36:27;35.60;91.30
10384;DHT22;5238;43.508;4.980;2023-06-22T12:38:58;35.40;91.30
10384;DHT22;5238;43.508;4.980;2023-06-22T12:41:25;35.30;91.30
10384;DHT22;5238;43.508;4.980;2023-06-22T12:43:54;35.20;91.30
10384;DHT22;5238;43.508;4.980;2023-06-22T12:46:24;35.10;91.30
10384;DHT22;5238;43.508;4.980;2023-06-22T12:48:53;35.00;91.30
10384;DHT22;5238;43.508;4.980;2023-06-22T12:51:29;34.80;91.30
10384;DHT22;5238;43.508;4.980;2023-06-22T12:53:57;34.60;91.30
10384;DHT22;5238;43.508;4.980;2023-06-22T12:56:30;34.50;91.30
10384;DHT22;5238;43.508;4.980;2023-06-22T12:58:58;34.40;91.30
10384;DHT22;5238;43.508;4.980;2023-06-22T13:01:32;34.40;91.30
10384;DHT22;5238;43.508;4.980;2023-06-22T13:04:09;34.30;91.30
10384;DHT22;5238;43.508;4.980;2023-06-22T13:06:44;34.30;91.30
10384;DHT22;5238;43.508;4.980;2023-06-22T13:09:13;34.30;91.30
10384;DHT22;5238;43.508;4.980;2023-06-22T13:11:47;34.20;91.30
10384;DHT22;5238;43.508;4.980;2023-06-22T13:14:14;34.00;91.30
10384;DHT22;5238;43.508;4.980;2023-06-22T13:16:42;34.00;91.30
10384;DHT22;5238;43.508;4.980;2023-06-22T13:19:18;33.80;91.30
10384;DHT22;5238;43.508;4.980;2023-06-22T13:21:47;33.70;91.30
10384;DHT22;5238;43.508;4.980;2023-06-22T13:24:16;33.50;91.30
10384;DHT22;5238;43.508;4.980;2023-06-22T13:26:43;33.40;91.30
10384;DHT22;5238;43.508;4.980;2023-06-22T13:29:09;33.40;91.30
10384;DHT22;5238;43.508;4.980;2023-06-22T13:31:37;33.40;91.30
10384;DHT22;5238;43.508;4.980;2023-06-22T13:34:04;33.40;91.30
10384;DHT22;5238;43.508;4.980;2023-06-22T13:36:33;33.50;91.30
10384;DHT22;5238;43.508;4.980;2023-06-22T13:39:00;33.60;91.30
10384;DHT22;5238;43.508;4.980;2023-06-22T13:41:26;33.60;91.30
10384;DHT22;5238;43.508;4.980;2023-06-22T13:43:53;33.60;91.30
10384;DHT22;5238;43.508;4.980;2023-06-22T13:46:20;33.60;91.30
10384;DHT22;5238;43.508;4.980;2023-06-22T13:48:47;33.60;91.30
10384;DHT22;5238;43.508;4.980;2023-06-22T13:51:14;33.60;91.30
10384;DHT22;5238;43.508;4.980;2023-06-22T13:53:42;33.50;91.30
10384;DHT22;5238;43.508;4.980;2023-06-22T13:56:09;33.50;91.30
10384;DHT22;5238;43.508;4.980;2023-06-22T13:58:36;33.50;91.30
10384;DHT22;5238;43.508;4.980;2023-06-22T14:01:03;33.50;91.30
10384;DHT22;5238;43.508;4.980;2023-06-22T14:03:30;33.50;91.30
10384;DHT22;5238;43.508;4.980;2023-06-22T14:05:57;33.50;91.30
10384;DHT22;5238;43.508;4.980;2023-06-22T14:08:24;33.50;91.30
10384;DHT22;5238;43.508;4.980;2023-06-22T14:10:53;33.40;91.30
10384;DHT22;5238;43.508;4.980;2023-06-22T14:13:20;33.40;91.30
10384;DHT22;5238;43.508;4.980;2023-06-22T14:15:47;33.40;91.30
10384;DHT22;5238;43.508;4.980;2023-06-22T14:18:14;33.40;91.30
10384;DHT22;5238;43.508;4.980;2023-06-22T14:20:42;33.30;91.30
10384;DHT22;5238;43.508;4.980;2023-06-22T14:23:10;33.30;91.30
10384;DHT22;5238;43.508;4.980;2023-06-22T14:25:40;33.20;91.30
10384;DHT22;5238;43.508;4.980;2023-06-22T14:28:09;33.20;91.30
10384;DHT22;5238;43.508;4.980;2023-06-22T14:30:37;33.20;91.30
10384;DHT22;5238;43.508;4.980;2023-06-22T14:33:04;33.10;91.30
10384;DHT22;5238;43.508;4.980;2023-06-22T14:35:33;33.10;91.30
10384;DHT22;5238;43.508;4.980;2023-06-22T14:38:05;33.10;91.30
10384;DHT22;5238;43.508;4.980;2023-06-22T14:40:32;33.00;91.30
10384;DHT22;5238;43.508;4.980;2023-06-22T14:42:59;33.00;91.30
10384;DHT22;5238;43.508;4.980;2023-06-22T14:45:43;33.00;91.30
10384;DHT22;5238;43.508;4.980;2023-06-22T14:48:14;33.00;91.30
10384;DHT22;5238;43.508;4.980;2023-06-22T14:50:43;33.00;91.30
10384;DHT22;5238;43.508;4.980;2023-06-22T14:53:16;32.90;91.30
10384;DHT22;5238;43.508;4.980;2023-06-22T14:55:44;32.80;91.30
10384;DHT22;5238;43.508;4.980;2023-06-22T14:58:11;32.80;91.30
10384;DHT22;5238;43.508;4.980;2023-06-22T15:00:41;32.80;91.30
10384;DHT22;5238;43.508;4.980;2023-06-22T15:03:10;32.80;91.30
10384;DHT22;5238;43.508;4.980;2023-06-22T15:05:42;32.70;91.30
10384;DHT22;5238;43.508;4.980;2023-06-22T15:08:11;32.60;91.30
10384;DHT22;5238;43.508;4.980;2023-06-22T15:10:39;32.50;91.30
10384;DHT22;5238;43.508;4.980;2023-06-22T15:13:08;32.50;91.30
10384;DHT22;5238;43.508;4.980;2023-06-22T15:15:48;32.50;91.30
10384;DHT22;5238;43.508;4.980;2023-06-22T15:18:20;32.50;91.30
10384;DHT22;5238;43.508;4.980;2023-06-22T15:20:54;32.60;91.30
10384;DHT22;5238;43.508;4.980;2023-06-22T15:23:24;32.60;91.30
10384;DHT22;5238;43.508;4.980;2023-06-22T15:25:51;32.60;91.30
10384;DHT22;5238;43.508;4.980;2023-06-22T15:28:25;32.70;91.30
10384;DHT22;5238;43.508;4.980;2023-06-22T15:30:53;32.70;91.30
10384;DHT22;5238;43.508;4.980;2023-06-22T15:33:35;32.70;91.30
10384;DHT22;5238;43.508;4.980;2023-06-22T15:36:04;32.70;91.30
10384;DHT22;5238;43.508;4.980;2023-06-22T15:38:32;32.80;91.30
10384;DHT22;5238;43.508;4.980;2023-06-22T15:41:03;32.70;91.30
10384;DHT22;5238;43.508;4.980;2023-06-22T15:43:32;32.70;91.30
10384;DHT22;5238;43.508;4.980;2023-06-22T15:46:04;32.60;91.30
10384;DHT22;5238;43.508;4.980;2023-06-22T15:48:32;32.50;91.30
10384;DHT22;5238;43.508;4.980;2023-06-22T15:51:02;32.50;91.30
10384;DHT22;5238;43.508;4.980;2023-06-22T15:53:30;32.40;91.30
10384;DHT22;5238;43.508;4.980;2023-06-22T15:55:58;32.40;91.30
10384;DHT22;5238;43.508;4.980;2023-06-22T15:58:35;32.50;91.30
10384;DHT22;5238;43.508;4.980;2023-06-22T16:01:07;32.50;91.30
10384;DHT22;5238;43.508;4.980;2023-06-22T16:03:43;32.60;91.30
10384;DHT22;5238;43.508;4.980;2023-06-22T16:06:12;32.50;91.30
10384;DHT22;5238;43.508;4.980;2023-06-22T16:08:45;32.50;91.30
10384;DHT22;5238;43.508;4.980;2023-06-22T16:11:12;32.50;91.30
10384;DHT22;5238;43.508;4.980;2023-06-22T16:13:48;32.50;91.30
10384;DHT22;5238;43.508;4.980;2023-06-22T16:16:18;32.50;91.30
10384;DHT22;5238;43.508;4.980;2023-06-22T16:18:44;32.50;91.30
10384;DHT22;5238;43.508;4.980;2023-06-22T16:21:15;32.50;91.30